Time;durP1;ratioP1;P1;durP2;ratioP2;P2;SDS_P1;SDS_P2;PMS_P1;PMS_P2;Temp;Humidity;BMP_temperature;BMP_pressure;BME280_temperature;BME280_humidity;BME280_pressure;Samples;Min_cycle;Max_cycle;Signal;HPM_P1;HPM_P2
2022/12/25 00:01:50;;;;;;;27.80;12.17;;;5.60;99.90;;;;;;5254571;28;20186;-51
2022/12/25 00:04:21;;;;;;;28.67;12.37;;;5.60;99.90;;;;;;5254801;28;20181;-52
2022/12/25 00:06:51;;;;;;;25.33;11.50;;;5.60;99.90;;;;;;5254915;28;20182;-52
2022/12/25 00:09:22;;;;;;;22.07;10.53;;;5.60;99.90;;;;;;5264437;28;20604;-52
2022/12/25 00:11:53;;;;;;;21.63;11.60;;;5.50;99.90;;;;;;5267845;28;20181;-50
2022/12/25 00:14:23;;;;;;;25.83;11.13;;;5.50;99.90;;;;;;5258668;28;20185;-51
2022/12/25 00:16:54;;;;;;;30.10;10.50;;;5.40;99.90;;;;;;5252225;28;20176;-51
2022/12/25 00:19:24;;;;;;;16.80;8.57;;;5.50;99.90;;;;;;5262547;28;20178;-53
2022/12/25 00:21:55;;;;;;;20.70;10.27;;;5.40;99.90;;;;;;5260190;28;20184;-51
2022/12/25 00:24:26;;;;;;;44.13;14.37;;;5.30;99.90;;;;;;5259612;28;20190;-52
2022/12/25 00:26:56;;;;;;;18.30;9.90;;;5.30;99.90;;;;;;5258024;28;20209;-49
2022/12/25 00:29:27;;;;;;;27.63;9.90;;;5.30;99.90;;;;;;5259918;28;20212;-51
2022/12/25 00:31:58;;;;;;;17.20;10.20;;;5.30;99.90;;;;;;5262171;28;20224;-49
2022/12/25 00:34:28;;;;;;;19.00;10.67;;;5.20;99.90;;;;;;5253794;28;20178;-53
2022/12/25 00:36:59;;;;;;;17.30;8.83;;;5.20;99.90;;;;;;5254570;28;20181;-50
2022/12/25 00:39:30;;;;;;;19.43;9.27;;;5.10;99.90;;;;;;5257173;28;20553;-52
2022/12/25 00:42:19;;;;;;;19.90;9.83;;;5.10;99.90;;;;;;5258836;28;20521;-50
2022/12/25 00:44:50;;;;;;;18.40;7.90;;;5.10;99.90;;;;;;5258306;28;21049;-50
2022/12/25 00:47:21;;;;;;;28.17;11.90;;;5.00;99.90;;;;;;5266898;28;20469;-50
2022/12/25 00:49:51;;;;;;;19.30;10.77;;;5.00;99.90;;;;;;5259249;28;20452;-51
2022/12/25 00:52:22;;;;;;;39.13;13.90;;;5.00;99.90;;;;;;5275478;28;20180;-50
2022/12/25 00:54:53;;;;;;;23.17;12.03;;;5.00;99.90;;;;;;5265408;28;20185;-49
2022/12/25 00:57:23;;;;;;;37.37;12.93;;;5.00;99.90;;;;;;5267533;28;20200;-53
2022/12/25 00:59:54;;;;;;;21.03;10.37;;;5.00;99.90;;;;;;5282390;27;20216;-51
2022/12/25 01:02:25;;;;;;;15.17;9.90;;;4.90;99.90;;;;;;5250831;28;20192;-52
2022/12/25 01:04:56;;;;;;;22.23;9.63;;;4.90;99.90;;;;;;5264150;28;20181;-50
2022/12/25 01:07:27;;;;;;;15.10;8.90;;;4.90;99.90;;;;;;5255622;28;20559;-52
2022/12/25 01:12:47;;;;;;;18.80;9.40;;;4.80;99.90;;;;;;5269958;28;20180;-50
2022/12/25 01:15:18;;;;;;;17.53;9.37;;;4.70;99.90;;;;;;5240854;28;20430;-50
2022/12/25 01:17:48;;;;;;;15.53;8.77;;;4.80;99.90;;;;;;5265852;28;20461;-50
2022/12/25 01:20:19;;;;;;;15.20;8.27;;;4.70;99.90;;;;;;5265681;28;20524;-51
2022/12/25 01:22:50;;;;;;;24.50;9.47;;;4.70;99.90;;;;;;5257301;28;20191;-56
2022/12/25 01:25:20;;;;;;;11.40;7.77;;;4.80;99.90;;;;;;5261709;28;20195;-50
2022/12/25 01:27:51;;;;;;;12.53;7.83;;;4.70;99.90;;;;;;5255810;28;20214;-50
2022/12/25 01:30:22;;;;;;;13.37;7.57;;;4.60;99.90;;;;;;5264693;28;20265;-52
2022/12/25 01:32:52;;;;;;;7.37;6.67;;;4.60;99.90;;;;;;5258604;28;20180;-52
2022/12/25 01:35:23;;;;;;;13.83;8.27;;;4.60;99.90;;;;;;5268180;28;20240;-50
2022/12/25 01:37:54;;;;;;;23.77;9.77;;;4.60;99.90;;;;;;5259470;28;20222;-49
2022/12/25 01:40:25;;;;;;;23.37;11.53;;;4.60;99.90;;;;;;5265659;28;20903;-50
2022/12/25 01:42:55;;;;;;;13.30;9.10;;;4.60;99.90;;;;;;5279328;28;20672;-49
2022/12/25 01:45:46;;;;;;;14.93;8.40;;;4.60;99.90;;;;;;5255079;28;20220;-51
2022/12/25 01:48:20;;;;;;;17.53;9.30;;;4.60;99.90;;;;;;5261248;28;20268;-50
2022/12/25 01:51:05;;;;;;;20.00;9.80;;;4.50;99.90;;;;;;5272772;28;20559;-50
2022/12/25 01:53:36;;;;;;;27.37;11.30;;;4.50;99.90;;;;;;5265013;28;20439;-48
2022/12/25 01:56:08;;;;;;;24.40;10.27;;;4.50;99.90;;;;;;5257460;28;20943;-51
2022/12/25 01:58:38;;;;;;;37.70;15.93;;;4.50;99.90;;;;;;5260387;28;20466;-51
2022/12/25 02:01:10;;;;;;;27.23;12.60;;;4.50;99.90;;;;;;5263239;28;20965;-50
2022/12/25 02:03:41;;;;;;;31.50;13.00;;;4.40;99.90;;;;;;5252121;28;20211;-51
2022/12/25 02:06:11;;;;;;;19.53;9.67;;;4.40;99.90;;;;;;5266099;28;20468;-51
2022/12/25 02:08:42;;;;;;;19.37;11.00;;;4.40;99.90;;;;;;5264720;28;20451;-50
2022/12/25 02:11:55;;;;;;;14.37;9.20;;;4.30;99.90;;;;;;5276951;28;20202;-51
2022/12/25 02:14:04;;;;;;;16.63;7.40;;;4.30;99.90;;;;;;5256889;28;20193;-52
2022/12/25 02:16:39;;;;;;;12.30;8.40;;;4.30;99.90;;;;;;5261387;28;20439;-52
2022/12/25 02:19:25;;;;;;;15.63;8.30;;;4.30;99.90;;;;;;5250786;28;20690;-51
2022/12/25 02:22:25;;;;;;;15.97;8.63;;;4.30;99.90;;;;;;5255938;28;20963;-51
2022/12/25 02:25:11;;;;;;;14.50;9.27;;;4.30;99.90;;;;;;5256517;28;20434;-52
2022/12/25 02:28:03;;;;;;;23.13;10.60;;;4.30;99.90;;;;;;5258312;28;20480;-51
2022/12/25 02:30:43;;;;;;;27.50;12.23;;;4.20;99.90;;;;;;5266455;28;20466;-51
2022/12/25 02:36:15;;;;;;;22.87;10.47;;;4.20;99.90;;;;;;5260869;28;20557;-53
2022/12/25 02:41:45;;;;;;;15.27;9.03;;;4.20;99.90;;;;;;5265836;28;20475;-52
2022/12/25 03:07:17;;;;;;;16.40;10.70;;;4.00;99.90;;;;;;5269376;28;20461;-51
2022/12/25 03:12:56;;;;;;;15.33;8.73;;;3.90;99.90;;;;;;5261577;28;20511;-50
2022/12/25 03:18:18;;;;;;;27.00;9.87;;;3.90;99.90;;;;;;5255757;28;20511;-51
2022/12/25 03:32:39;;;;;;;26.07;10.23;;;3.90;99.90;;;;;;5266961;28;21011;-51
2022/12/25 03:35:22;;;;;;;16.53;9.80;;;3.90;99.90;;;;;;5264097;28;20516;-52
2022/12/25 04:38:38;;;;;;;41.70;14.67;;;3.80;99.90;;;;;;5260175;28;20545;-51
2022/12/25 04:41:12;;;;;;;41.93;14.33;;;3.80;99.90;;;;;;5271589;28;21035;-50
2022/12/25 04:43:42;;;;;;;21.37;11.30;;;3.80;99.90;;;;;;5257742;28;20426;-51
2022/12/25 04:46:13;;;;;;;44.70;15.10;;;3.80;99.90;;;;;;5262430;28;20439;-51
2022/12/25 04:48:43;;;;;;;32.13;12.50;;;3.80;99.90;;;;;;5262192;28;20209;-52
2022/12/25 04:51:19;;;;;;;25.70;10.77;;;3.70;99.90;;;;;;5261379;28;20264;-51
2022/12/25 04:53:51;;;;;;;39.30;14.37;;;3.70;99.90;;;;;;5260245;28;20639;-51
2022/12/25 04:56:22;;;;;;;46.37;16.90;;;3.60;99.90;;;;;;5254136;28;20430;-51
2022/12/25 04:58:52;;;;;;;40.87;18.13;;;3.60;99.90;;;;;;5260607;28;20463;-51
2022/12/25 05:01:23;;;;;;;52.40;19.17;;;3.60;99.90;;;;;;5256249;28;20427;-51
2022/12/25 05:03:54;;;;;;;60.17;17.77;;;3.70;99.90;;;;;;5254348;28;20235;-51
2022/12/25 05:06:24;;;;;;;50.90;17.63;;;3.70;99.90;;;;;;5263272;28;20190;-50
2022/12/25 05:08:55;;;;;;;85.17;21.67;;;3.70;99.90;;;;;;5262273;28;20211;-51
2022/12/25 05:11:26;;;;;;;67.10;21.37;;;3.80;99.90;;;;;;5265043;28;20213;-50
2022/12/25 05:13:57;;;;;;;59.67;20.20;;;3.80;99.90;;;;;;5260545;28;20230;-51
2022/12/25 05:16:28;;;;;;;72.07;20.97;;;3.70;99.90;;;;;;5257706;28;20445;-53
2022/12/25 05:18:58;;;;;;;71.70;22.47;;;3.70;99.90;;;;;;5260966;28;20191;-51
2022/12/25 05:21:29;;;;;;;83.80;21.47;;;3.70;99.90;;;;;;5260615;28;20180;-52
2022/12/25 05:24:00;;;;;;;63.13;21.40;;;3.60;99.90;;;;;;5274406;27;20174;-50
2022/12/25 05:26:30;;;;;;;69.87;21.37;;;3.60;99.90;;;;;;5263787;28;20187;-51
2022/12/25 05:29:01;;;;;;;77.10;21.07;;;3.60;99.90;;;;;;5257260;28;20203;-51
2022/12/25 05:31:31;;;;;;;78.20;22.00;;;3.60;99.90;;;;;;5258193;28;20185;-52
2022/12/25 05:34:02;;;;;;;81.80;21.43;;;3.50;99.90;;;;;;5256684;28;20219;-51
2022/12/25 05:36:33;;;;;;;69.37;22.27;;;3.50;99.90;;;;;;5259815;28;20176;-51
2022/12/25 05:39:04;;;;;;;55.00;18.23;;;3.50;99.90;;;;;;5255298;28;20198;-52
2022/12/25 05:41:34;;;;;;;48.77;18.07;;;3.50;99.90;;;;;;5256985;28;20169;-51
2022/12/25 05:44:05;;;;;;;72.47;19.93;;;3.40;99.90;;;;;;5265495;28;20662;-52
2022/12/25 05:46:35;;;;;;;70.07;19.83;;;3.40;99.90;;;;;;5263050;28;20189;-52
2022/12/25 05:49:06;;;;;;;43.27;15.13;;;3.30;99.90;;;;;;5263510;28;20225;-51
2022/12/25 05:51:37;;;;;;;45.03;15.17;;;3.30;99.90;;;;;;5262517;28;20208;-50
2022/12/25 05:54:08;;;;;;;40.17;14.00;;;3.30;99.90;;;;;;5253299;28;20182;-49
2022/12/25 05:56:38;;;;;;;49.97;19.47;;;3.30;99.90;;;;;;5254743;28;20237;-51
2022/12/25 05:59:09;;;;;;;87.27;19.63;;;3.30;99.90;;;;;;5255800;28;20292;-51
2022/12/25 06:01:39;;;;;;;55.00;20.10;;;3.20;99.90;;;;;;5256742;28;20181;-51
2022/12/25 06:04:10;;;;;;;65.60;19.80;;;3.20;99.90;;;;;;5264695;28;20185;-51
2022/12/25 06:06:41;;;;;;;76.73;20.70;;;3.30;99.90;;;;;;5267346;28;20184;-51
2022/12/25 06:09:12;;;;;;;70.53;20.63;;;3.20;99.90;;;;;;5267044;28;20201;-51
2022/12/25 06:11:42;;;;;;;56.20;19.20;;;3.20;99.90;;;;;;5263171;28;20184;-50
2022/12/25 06:14:14;;;;;;;73.87;20.87;;;3.30;99.90;;;;;;5274752;28;20435;-51
2022/12/25 06:16:45;;;;;;;72.47;22.00;;;3.20;99.90;;;;;;5267119;28;20209;-49
2022/12/25 06:19:15;;;;;;;71.53;20.63;;;3.30;99.90;;;;;;5260895;28;20471;-50
2022/12/25 06:21:46;;;;;;;70.50;21.27;;;3.30;99.90;;;;;;5269931;28;20262;-50
2022/12/25 06:24:17;;;;;;;79.23;21.50;;;3.30;99.90;;;;;;5265162;28;20187;-50
2022/12/25 06:26:48;;;;;;;41.20;18.10;;;3.30;99.90;;;;;;5267913;28;20257;-51
2022/12/25 06:29:19;;;;;;;74.17;23.20;;;3.30;99.90;;;;;;5262749;28;20231;-51
2022/12/25 06:31:53;;;;;;;76.30;21.77;;;3.30;99.90;;;;;;5263895;28;20432;-52
2022/12/25 06:34:24;;;;;;;68.83;21.03;;;3.20;99.90;;;;;;5263928;28;20215;-50
2022/12/25 06:36:55;;;;;;;62.43;20.00;;;3.20;99.90;;;;;;5268573;28;20963;-50
2022/12/25 06:39:25;;;;;;;77.87;22.47;;;3.20;99.90;;;;;;5268839;28;20489;-50
2022/12/25 06:41:56;;;;;;;100.57;25.07;;;3.20;99.90;;;;;;5266218;28;20665;-50
2022/12/25 06:44:27;;;;;;;75.70;23.83;;;3.10;99.90;;;;;;5262599;28;20210;-51
2022/12/25 06:46:57;;;;;;;72.93;20.20;;;3.10;99.90;;;;;;5263407;28;20662;-51
2022/12/25 06:49:28;;;;;;;88.17;22.23;;;3.10;99.90;;;;;;5262399;28;20662;-51
2022/12/25 06:51:59;;;;;;;88.83;23.20;;;3.10;99.90;;;;;;5267817;28;20268;-49
2022/12/25 06:54:29;;;;;;;105.27;25.43;;;3.10;99.90;;;;;;5267983;28;20178;-50
2022/12/25 06:57:01;;;;;;;64.57;21.47;;;3.10;99.90;;;;;;5268633;28;20212;-50
2022/12/25 06:59:31;;;;;;;78.40;25.87;;;3.10;99.90;;;;;;5268922;28;20182;-51
2022/12/25 07:02:02;;;;;;;87.70;26.40;;;3.00;99.90;;;;;;5264585;28;20436;-51
2022/12/25 07:04:37;;;;;;;78.23;24.83;;;3.00;99.90;;;;;;5278868;28;20182;-50
2022/12/25 07:07:09;;;;;;;72.50;24.07;;;3.00;99.90;;;;;;5259343;28;20204;-50
2022/12/25 07:09:41;;;;;;;98.70;28.00;;;3.00;99.90;;;;;;5268230;28;20466;-49
2022/12/25 07:12:22;;;;;;;85.30;27.33;;;3.00;99.90;;;;;;5263130;28;20435;-51
2022/12/25 07:14:54;;;;;;;99.57;27.67;;;3.00;99.90;;;;;;5271515;28;20478;-50
2022/12/25 07:17:24;;;;;;;73.63;25.00;;;3.00;99.90;;;;;;5268832;28;20825;-50
2022/12/25 07:19:56;;;;;;;86.03;27.30;;;3.10;99.90;;;;;;5268200;28;20431;-50
2022/12/25 07:22:28;;;;;;;95.90;28.00;;;3.00;99.90;;;;;;5271247;28;20268;-50
2022/12/25 07:24:59;;;;;;;61.90;21.77;;;3.10;99.90;;;;;;5274038;28;20435;-50
2022/12/25 07:27:30;;;;;;;72.40;22.47;;;3.20;99.90;;;;;;5262953;28;20990;-50
2022/12/25 07:30:00;;;;;;;83.03;21.90;;;3.20;99.90;;;;;;5264607;28;20205;-51
2022/12/25 07:32:31;;;;;;;68.53;24.03;;;3.20;99.90;;;;;;5264884;28;20181;-51
2022/12/25 07:35:02;;;;;;;77.50;23.90;;;3.30;99.90;;;;;;5265031;28;20182;-51
2022/12/25 07:37:32;;;;;;;54.87;19.37;;;3.30;99.90;;;;;;5257867;28;20203;-50
2022/12/25 07:40:03;;;;;;;95.57;26.20;;;3.40;99.90;;;;;;5258577;28;22135;-51
2022/12/25 07:42:34;;;;;;;71.50;24.53;;;3.30;99.90;;;;;;5264914;28;20298;-50
2022/12/25 07:45:05;;;;;;;94.03;26.87;;;3.30;99.90;;;;;;5264153;28;20429;-51
2022/12/25 07:47:36;;;;;;;117.57;30.20;;;3.30;99.90;;;;;;5268501;28;20614;-49
2022/12/25 07:50:07;;;;;;;80.20;24.10;;;3.30;99.90;;;;;;5264349;28;20492;-50
2022/12/25 07:52:37;;;;;;;115.23;29.60;;;3.30;99.90;;;;;;5265817;28;20184;-51
2022/12/25 07:55:09;;;;;;;96.73;26.60;;;3.30;99.90;;;;;;5256866;28;21007;-50
2022/12/25 07:57:39;;;;;;;113.47;28.60;;;3.30;99.90;;;;;;5259614;28;20290;-48
2022/12/25 08:00:11;;;;;;;103.20;26.80;;;3.30;99.90;;;;;;5267271;28;20519;-50
2022/12/25 08:02:41;;;;;;;57.33;21.20;;;3.30;99.90;;;;;;5267293;28;20190;-49
2022/12/25 08:05:12;;;;;;;79.73;25.23;;;3.30;99.90;;;;;;5262791;28;20436;-49
2022/12/25 08:07:43;;;;;;;92.47;27.93;;;3.40;99.90;;;;;;5267525;28;20207;-49
2022/12/25 08:10:13;;;;;;;52.97;19.57;;;3.40;99.90;;;;;;5259887;28;20225;-49
2022/12/25 08:12:44;;;;;;;83.70;22.10;;;3.60;99.90;;;;;;5264751;28;20569;-50
2022/12/25 08:15:15;;;;;;;83.63;22.63;;;3.70;99.90;;;;;;5265867;28;20183;-49
2022/12/25 08:17:45;;;;;;;66.80;21.00;;;3.70;99.90;;;;;;5269243;28;20189;-49
2022/12/25 08:20:16;;;;;;;54.93;20.10;;;3.90;99.90;;;;;;5264983;28;20658;-48
2022/12/25 08:22:47;;;;;;;90.57;25.93;;;3.80;99.90;;;;;;5272050;28;20260;-50
2022/12/25 08:25:17;;;;;;;59.97;22.23;;;3.70;99.90;;;;;;5262617;28;20183;-48
2022/12/25 08:27:48;;;;;;;88.87;26.53;;;3.70;99.90;;;;;;5266757;28;20673;-49
2022/12/25 08:30:19;;;;;;;83.23;25.03;;;3.70;99.90;;;;;;5262823;28;20205;-48
2022/12/25 08:32:49;;;;;;;103.77;29.60;;;3.70;99.90;;;;;;5263867;28;20715;-49
2022/12/25 08:35:20;;;;;;;89.87;29.17;;;3.70;99.90;;;;;;5258288;28;20181;-49
2022/12/25 08:37:51;;;;;;;116.13;31.80;;;3.80;99.90;;;;;;5259748;28;20228;-49
2022/12/25 08:40:22;;;;;;;160.83;37.20;;;3.80;99.90;;;;;;5269312;28;20194;-48
2022/12/25 08:42:55;;;;;;;127.23;36.50;;;3.80;99.90;;;;;;5258621;28;20444;-49
2022/12/25 08:45:26;;;;;;;101.77;30.00;;;3.80;99.90;;;;;;5265699;28;20186;-48
2022/12/25 08:47:57;;;;;;;114.57;35.10;;;3.90;99.90;;;;;;5250790;28;20457;-49
2022/12/25 08:50:27;;;;;;;126.10;33.50;;;3.90;99.90;;;;;;5264749;28;20204;-48
2022/12/25 08:52:58;;;;;;;158.20;35.60;;;3.80;99.90;;;;;;5264000;28;20179;-49
2022/12/25 08:55:29;;;;;;;105.03;30.20;;;3.80;99.90;;;;;;5273459;28;20184;-48
2022/12/25 08:57:59;;;;;;;83.33;25.10;;;3.80;99.90;;;;;;5264918;28;20280;-48
2022/12/25 09:00:30;;;;;;;100.07;27.77;;;3.80;99.90;;;;;;5268554;28;20444;-47
2022/12/25 09:03:01;;;;;;;73.27;23.80;;;3.80;99.90;;;;;;5268978;28;20193;-50
2022/12/25 09:05:35;;;;;;;95.33;24.00;;;3.80;99.90;;;;;;5260545;28;20183;-49
2022/12/25 09:08:06;;;;;;;84.77;23.63;;;3.70;99.90;;;;;;5264517;28;20451;-48
2022/12/25 09:10:37;;;;;;;76.97;28.10;;;3.60;99.90;;;;;;5263577;28;20464;-51
2022/12/25 09:13:08;;;;;;;84.20;23.47;;;3.60;99.90;;;;;;5275074;28;20185;-53
2022/12/25 09:15:39;;;;;;;54.33;20.90;;;3.50;99.90;;;;;;5264097;28;20638;-49
2022/12/25 09:18:10;;;;;;;72.23;24.60;;;3.40;99.90;;;;;;5262763;28;20502;-49
2022/12/25 09:20:41;;;;;;;88.73;25.73;;;3.40;99.90;;;;;;5265642;28;20428;-51
2022/12/25 09:23:11;;;;;;;80.80;24.17;;;3.40;99.90;;;;;;5268505;28;20188;-49
2022/12/25 09:25:42;;;;;;;100.77;25.47;;;3.40;99.90;;;;;;5269718;28;20203;-49
2022/12/25 09:28:13;;;;;;;101.47;25.80;;;3.50;99.90;;;;;;5269730;28;20206;-49
2022/12/25 09:30:43;;;;;;;122.90;28.13;;;3.40;99.90;;;;;;5267759;28;20213;-51
2022/12/25 09:33:14;;;;;;;65.67;25.03;;;3.40;99.90;;;;;;5267517;28;20212;-50
2022/12/25 09:35:59;;;;;;;90.17;30.57;;;3.40;99.90;;;;;;5266250;28;20184;-49
2022/12/25 09:38:30;;;;;;;124.03;29.77;;;3.60;99.90;;;;;;5264366;28;20209;-52
2022/12/25 09:41:26;;;;;;;145.53;35.57;;;3.70;99.90;;;;;;5260010;28;20795;-50
2022/12/25 09:44:05;;;;;;;138.03;33.77;;;3.70;99.90;;;;;;5258231;28;20444;-52
2022/12/25 09:47:11;;;;;;;166.63;38.43;;;3.80;99.90;;;;;;5273696;27;20428;-51
2022/12/25 09:49:52;;;;;;;102.20;29.20;;;4.00;99.90;;;;;;5262698;28;20467;-50
2022/12/25 09:52:45;;;;;;;91.40;30.03;;;4.00;99.90;;;;;;5265559;28;20439;-51
2022/12/25 09:55:23;;;;;;;90.80;28.77;;;4.00;99.90;;;;;;5264990;28;20468;-51
2022/12/25 09:57:55;;;;;;;99.67;31.73;;;4.00;99.90;;;;;;5261070;28;20454;-51
2022/12/25 10:00:40;;;;;;;84.67;27.07;;;4.10;99.90;;;;;;5262356;28;20924;-50
2022/12/25 10:03:20;;;;;;;128.23;34.53;;;4.30;99.90;;;;;;5248984;28;20547;-50
2022/12/25 10:06:00;;;;;;;133.47;34.53;;;4.40;99.90;;;;;;5268842;28;20446;-50
2022/12/25 10:08:58;;;;;;;96.27;29.07;;;4.50;99.90;;;;;;5255692;28;20449;-49
2022/12/25 10:11:50;;;;;;;63.90;24.43;;;4.60;99.90;;;;;;5258998;28;20470;-51
2022/12/25 10:14:36;;;;;;;115.63;33.30;;;4.80;99.90;;;;;;5261176;28;21001;-52
2022/12/25 10:17:59;;;;;;;78.57;26.50;;;4.90;99.90;;;;;;5261656;28;20447;-50
2022/12/25 10:20:48;;;;;;;95.77;28.50;;;4.80;99.90;;;;;;5266506;28;20432;-52
2022/12/25 10:23:31;;;;;;;111.77;31.80;;;4.60;99.90;;;;;;5264158;28;20445;-51
2022/12/25 10:26:03;;;;;;;54.13;23.37;;;4.50;99.90;;;;;;5240894;28;20448;-49
2022/12/25 10:28:38;;;;;;;115.60;31.33;;;4.30;99.90;;;;;;5252875;28;20460;-48
2022/12/25 10:31:20;;;;;;;80.00;28.90;;;4.10;99.90;;;;;;5253660;28;20466;-49
2022/12/25 10:33:52;;;;;;;93.90;30.30;;;4.00;99.90;;;;;;5266223;28;20431;-49
2022/12/25 10:36:25;;;;;;;79.33;28.83;;;4.00;99.90;;;;;;5255190;28;20454;-51
2022/12/25 10:38:56;;;;;;;99.40;28.80;;;3.80;99.90;;;;;;5247312;28;20949;-49
2022/12/25 10:42:07;;;;;;;107.50;30.93;;;3.80;99.90;;;;;;5266534;28;20420;-50
2022/12/25 10:44:37;;;;;;;84.90;26.80;;;3.80;99.90;;;;;;5263441;28;20184;-52
2022/12/25 10:47:08;;;;;;;89.00;29.70;;;3.90;99.90;;;;;;5264028;28;20468;-51
2022/12/25 10:49:39;;;;;;;109.00;32.60;;;3.80;99.90;;;;;;5260226;28;21559;-50
2022/12/25 10:52:22;;;;;;;66.93;26.77;;;3.80;99.90;;;;;;5264481;28;20177;-47
2022/12/25 10:54:54;;;;;;;91.27;30.13;;;3.80;99.90;;;;;;5255911;28;20178;-50
2022/12/25 10:57:26;;;;;;;80.30;28.13;;;3.90;99.90;;;;;;5266923;28;20497;-49
2022/12/25 10:59:57;;;;;;;93.63;30.77;;;3.90;99.90;;;;;;5260012;28;20435;-50
2022/12/25 11:02:32;;;;;;;101.57;30.17;;;3.80;99.90;;;;;;5266436;28;20439;-48
2022/12/25 11:05:04;;;;;;;97.57;29.23;;;3.60;99.90;;;;;;5263770;28;20201;-53
2022/12/25 11:07:45;;;;;;;142.83;37.97;;;3.70;99.90;;;;;;5267788;28;20451;-54
2022/12/25 11:10:23;;;;;;;109.23;34.77;;;3.70;99.90;;;;;;5260274;28;20466;-50
2022/12/25 11:12:54;;;;;;;93.33;31.73;;;3.90;99.90;;;;;;5269950;28;20426;-49
2022/12/25 11:15:36;;;;;;;90.03;30.63;;;4.00;99.90;;;;;;5257263;28;20925;-50
2022/12/25 11:18:22;;;;;;;134.10;35.70;;;4.00;99.90;;;;;;5268757;28;20457;-49
2022/12/25 11:21:02;;;;;;;127.80;35.37;;;4.10;99.90;;;;;;5267687;28;20432;-50
2022/12/25 11:23:33;;;;;;;92.17;31.40;;;4.10;99.90;;;;;;5274887;28;20472;-50
2022/12/25 11:26:10;;;;;;;161.83;40.40;;;4.10;99.90;;;;;;5270560;28;20459;-52
2022/12/25 11:28:42;;;;;;;97.53;32.30;;;4.20;99.90;;;;;;5270456;28;20262;-49
2022/12/25 11:31:14;;;;;;;133.33;37.47;;;4.10;99.90;;;;;;5268051;28;20467;-50
2022/12/25 11:34:00;;;;;;;146.20;36.83;;;4.10;99.90;;;;;;5283270;27;20420;-48
2022/12/25 11:36:44;;;;;;;167.43;41.13;;;4.00;99.90;;;;;;5282000;28;20531;-51
2022/12/25 11:39:44;;;;;;;122.83;37.60;;;4.10;99.90;;;;;;5280984;27;20449;-50
2022/12/25 11:42:35;;;;;;;91.17;33.07;;;4.20;99.90;;;;;;5243174;28;20867;-51
2022/12/25 11:45:23;;;;;;;112.70;35.40;;;4.20;99.90;;;;;;5270076;28;20432;-49
2022/12/25 11:47:58;;;;;;;105.03;36.87;;;4.10;99.90;;;;;;5256154;28;20508;-50
2022/12/25 11:50:50;;;;;;;144.67;40.47;;;4.20;99.90;;;;;;5260711;28;20474;-51
2022/12/25 11:53:40;;;;;;;120.10;38.40;;;4.20;99.90;;;;;;5263388;28;20431;-50
2022/12/25 11:56:26;;;;;;;126.00;39.03;;;4.20;99.90;;;;;;5263186;28;21302;-55
2022/12/25 11:59:05;;;;;;;126.33;40.00;;;4.20;99.90;;;;;;5263683;28;20508;-49
2022/12/25 12:01:47;;;;;;;137.57;37.60;;;4.20;99.90;;;;;;5276908;27;20522;-52
2022/12/25 12:04:23;;;;;;;94.40;33.70;;;4.20;99.90;;;;;;5266910;28;20443;-49
2022/12/25 12:07:12;;;;;;;134.00;37.00;;;4.20;99.90;;;;;;5277153;28;20588;-49
2022/12/25 12:09:53;;;;;;;96.23;33.57;;;4.30;99.90;;;;;;5261897;28;20463;-52
2022/12/25 12:12:51;;;;;;;95.47;32.23;;;4.20;99.90;;;;;;5256452;28;20458;-50
2022/12/25 12:15:44;;;;;;;110.30;35.40;;;4.30;99.90;;;;;;5255338;28;20564;-54
2022/12/25 12:18:22;;;;;;;58.30;25.10;;;4.30;99.90;;;;;;5268857;28;20467;-50
2022/12/25 12:21:22;;;;;;;94.17;28.40;;;4.30;99.90;;;;;;5268161;28;20465;-51
2022/12/25 12:24:17;;;;;;;62.00;27.67;;;4.40;99.90;;;;;;5271560;28;20474;-54
2022/12/25 12:27:00;;;;;;;63.90;29.07;;;4.40;99.90;;;;;;5271207;28;20441;-48
2022/12/25 12:29:44;;;;;;;82.47;31.07;;;4.40;99.90;;;;;;5268943;28;20801;-50
2022/12/25 12:32:26;;;;;;;77.87;30.73;;;4.50;99.90;;;;;;5268821;28;20440;-50
2022/12/25 12:34:58;;;;;;;84.60;29.50;;;4.50;99.90;;;;;;5278661;27;20442;-50
2022/12/25 12:37:34;;;;;;;84.97;33.97;;;4.50;99.90;;;;;;5271906;28;20444;-49
2022/12/25 12:40:07;;;;;;;65.70;28.63;;;4.50;99.90;;;;;;5267131;28;20961;-50
2022/12/25 12:42:49;;;;;;;65.53;25.00;;;4.50;99.90;;;;;;5274562;28;20452;-51
2022/12/25 12:45:25;;;;;;;64.47;27.53;;;4.60;99.90;;;;;;5271363;28;20921;-51
2022/12/25 12:47:56;;;;;;;57.03;23.50;;;4.50;99.90;;;;;;5268071;28;20463;-52
2022/12/25 12:50:34;;;;;;;85.93;30.10;;;4.50;99.90;;;;;;5271866;28;20464;-55
2022/12/25 12:53:23;;;;;;;76.33;27.60;;;4.50;99.90;;;;;;5266617;28;20433;-48
2022/12/25 12:55:54;;;;;;;71.97;31.73;;;4.60;99.90;;;;;;5273477;28;20442;-53
2022/12/25 12:58:32;;;;;;;66.53;29.20;;;4.60;99.90;;;;;;5274885;28;20467;-50
2022/12/25 13:01:21;;;;;;;64.67;25.93;;;4.60;99.90;;;;;;5264750;28;20456;-50
2022/12/25 13:04:12;;;;;;;60.90;23.07;;;4.60;99.90;;;;;;5271235;28;20437;-50
2022/12/25 13:07:14;;;;;;;54.03;23.00;;;4.60;99.90;;;;;;5268768;28;20480;-50
2022/12/25 13:10:02;;;;;;;91.17;30.37;;;4.60;99.90;;;;;;5283079;27;20460;-52
2022/12/25 13:12:33;;;;;;;52.33;22.80;;;4.70;99.90;;;;;;5260204;28;24351;-50
2022/12/25 13:15:11;;;;;;;51.60;24.30;;;4.70;99.90;;;;;;5265933;28;20449;-52
2022/12/25 13:17:44;;;;;;;44.03;21.33;;;4.70;99.90;;;;;;5266456;28;20208;-50
2022/12/25 13:20:35;;;;;;;57.63;24.97;;;4.80;99.90;;;;;;5269556;28;20444;-51
2022/12/25 13:23:28;;;;;;;63.10;20.87;;;4.90;99.90;;;;;;5260551;28;20447;-53
2022/12/25 13:26:11;;;;;;;72.47;29.43;;;4.90;99.90;;;;;;5260767;28;20440;-51
2022/12/25 13:28:45;;;;;;;44.07;21.73;;;4.90;99.90;;;;;;5259821;28;20818;-50
2022/12/25 13:31:29;;;;;;;51.03;23.67;;;4.90;99.90;;;;;;5265093;28;20468;-49
2022/12/25 13:34:05;;;;;;;47.23;21.90;;;4.90;99.90;;;;;;5263294;28;20445;-51
2022/12/25 13:36:38;;;;;;;54.17;24.10;;;5.00;99.90;;;;;;5261463;28;20438;-54
2022/12/25 13:39:15;;;;;;;37.40;18.63;;;5.00;99.90;;;;;;5257798;28;20826;-49
2022/12/25 13:44:52;;;;;;;37.50;17.87;;;4.90;99.90;;;;;;5259230;28;20473;-50
2022/12/25 13:47:29;;;;;;;39.00;19.90;;;5.00;99.90;;;;;;5257313;28;20457;-49
2022/12/25 13:50:13;;;;;;;27.83;16.50;;;4.90;99.90;;;;;;5270305;28;21064;-49
2022/12/25 13:52:43;;;;;;;30.47;16.07;;;4.90;99.90;;;;;;5270975;28;20441;-54
2022/12/25 13:55:20;;;;;;;36.97;17.73;;;4.90;99.90;;;;;;5262761;28;20438;-51
2022/12/25 13:57:53;;;;;;;44.83;16.30;;;4.90;99.90;;;;;;5261731;28;20306;-51
2022/12/25 14:00:35;;;;;;;28.60;15.63;;;4.90;99.90;;;;;;5261122;28;20541;-51
2022/12/25 14:03:15;;;;;;;34.07;17.53;;;5.00;99.90;;;;;;5265892;28;20441;-51
2022/12/25 14:05:58;;;;;;;43.00;16.17;;;5.10;99.90;;;;;;5255916;28;20468;-51
2022/12/25 14:08:31;;;;;;;39.83;17.67;;;5.10;99.90;;;;;;5271723;28;20826;-52
2022/12/25 14:11:04;;;;;;;33.77;18.57;;;5.10;99.90;;;;;;5257053;28;20534;-52
2022/12/25 14:13:39;;;;;;;37.57;18.13;;;5.10;99.90;;;;;;5263194;28;20866;-51
2022/12/25 14:16:10;;;;;;;33.00;17.20;;;5.10;99.90;;;;;;5264528;28;20456;-51
2022/12/25 14:18:56;;;;;;;43.83;17.97;;;5.10;99.90;;;;;;5255217;28;20937;-51
2022/12/25 14:21:48;;;;;;;40.67;18.97;;;5.10;99.90;;;;;;5269172;28;20434;-51
2022/12/25 14:24:21;;;;;;;41.33;18.83;;;5.20;99.90;;;;;;5261716;28;20613;-51
2022/12/25 14:26:57;;;;;;;34.70;17.67;;;5.20;99.90;;;;;;5269110;28;20465;-50
2022/12/25 14:29:42;;;;;;;35.27;17.60;;;5.20;99.90;;;;;;5268064;28;20434;-48
2022/12/25 14:32:19;;;;;;;35.13;17.40;;;5.20;99.90;;;;;;5264628;28;20447;-52
2022/12/25 14:34:54;;;;;;;40.47;18.87;;;5.20;99.90;;;;;;5266045;28;20476;-51
2022/12/25 14:37:28;;;;;;;38.60;18.83;;;5.20;99.90;;;;;;5273253;28;20455;-49
2022/12/25 14:40:31;;;;;;;29.53;16.43;;;5.30;99.90;;;;;;5270388;28;20434;-48
2022/12/25 14:43:04;;;;;;;39.60;16.27;;;5.30;99.90;;;;;;5272474;28;20923;-50
2022/12/25 14:45:39;;;;;;;41.67;16.53;;;5.30;99.90;;;;;;5264609;28;20437;-49
2022/12/25 14:48:21;;;;;;;34.73;16.70;;;5.30;99.90;;;;;;5272788;28;20499;-57
2022/12/25 14:51:16;;;;;;;38.43;16.37;;;5.30;99.90;;;;;;5272975;28;20462;-50
2022/12/25 14:53:50;;;;;;;45.27;15.97;;;5.40;99.90;;;;;;5266390;28;20524;-53
2022/12/25 14:56:22;;;;;;;32.00;16.03;;;5.40;99.90;;;;;;5272053;28;20441;-48
2022/12/25 14:58:56;;;;;;;40.93;16.67;;;5.40;99.90;;;;;;5267461;28;20463;-50
2022/12/25 15:01:35;;;;;;;34.93;17.30;;;5.40;99.90;;;;;;5264229;28;20483;-49
2022/12/25 15:04:09;;;;;;;29.17;13.97;;;5.40;99.90;;;;;;5270221;28;20465;-54
2022/12/25 15:06:51;;;;;;;37.10;15.40;;;5.50;99.90;;;;;;5271251;28;20449;-51
2022/12/25 15:09:22;;;;;;;25.67;14.80;;;5.50;99.90;;;;;;5268582;28;21098;-49
2022/12/25 15:11:55;;;;;;;31.23;15.13;;;5.60;99.90;;;;;;5269437;28;20824;-49